DRRN/NIM METAR and TAF weather

Enter ICAO airport designator
Station Type Date Time Source
DRRN METAR 2020/08/11 18:00 UTC NOAA

DRRN 111800Z 19006KT 4500 TSRA BKN015 FEW020CB 24/24 Q1012 BECMG 6000 -TSRA


Station Type Date Time Source
DRRN Decoded METAR 2020/08/11 18:00 UTC NOAA

Niamey-Aero, Niger (DRRN) 13-29N 002-10E 227M
Aug 11, 2020 - 02:00 PM EDT / 2020.08.11 1800 UTC
Wind: from the S (190 degrees) at 7 MPH (6 KT):0
Visibility: 2 mile(s):0
Sky conditions: mostly cloudy
Weather: rain with thunder; Cumulonimbus clouds observed
Temperature: 75 F (24 C)
Dew Point: 75 F (24 C)
Relative Humidity: 100%
Pressure (altimeter): 29.88 in. Hg (1012 hPa)
ob: DRRN 111800Z 19006KT 4500 TSRA BKN015 FEW020CB 24/24 Q1012 BECMG 6000 -TSRA
cycle: 18

Station Type Date Time Source
DRRN TAF 2020/08/11 18:21 UTC NOAA

TAF DRRN 111700Z 1118/1224 22008KT 6000 -TSRA BKN015 FEW026CB
TEMPO 1118/1122 1800 TSRA
BECMG 1122/1124 NSW FEW015
TEMPO 1209/1215 4000 TS SHRA BKN013 FEW020CB

Example: see airport list